sensor_id;sensor_type;location;lat;lon;timestamp;temperature;humidity
2391;DHT22;22957;50.824;4.360;2023-11-21T00:01:40;13.00;99.90
2391;DHT22;22957;50.824;4.360;2023-11-21T00:04:05;13.00;99.90
2391;DHT22;22957;50.824;4.360;2023-11-21T00:06:32;12.80;99.90
2391;DHT22;22957;50.824;4.360;2023-11-21T00:08:58;12.70;99.90
2391;DHT22;22957;50.824;4.360;2023-11-21T00:11:24;12.70;99.90
2391;DHT22;22957;50.824;4.360;2023-11-21T00:13:51;12.80;99.90
2391;DHT22;22957;50.824;4.360;2023-11-21T00:16:17;12.50;99.90
2391;DHT22;22957;50.824;4.360;2023-11-21T00:18:42;12.60;99.90
2391;DHT22;22957;50.824;4.360;2023-11-21T00:21:08;12.30;99.90
2391;DHT22;22957;50.824;4.360;2023-11-21T00:23:34;12.90;99.90
2391;DHT22;22957;50.824;4.360;2023-11-21T00:26:00;12.40;99.90
2391;DHT22;22957;50.824;4.360;2023-11-21T00:28:26;12.40;99.90
2391;DHT22;22957;50.824;4.360;2023-11-21T00:30:52;12.50;99.90
2391;DHT22;22957;50.824;4.360;2023-11-21T00:33:17;12.70;99.90
2391;DHT22;22957;50.824;4.360;2023-11-21T00:35:43;12.70;99.90
2391;DHT22;22957;50.824;4.360;2023-11-21T00:38:08;12.90;99.90
2391;DHT22;22957;50.824;4.360;2023-11-21T00:40:34;12.60;99.90
2391;DHT22;22957;50.824;4.360;2023-11-21T00:42:59;12.90;99.90
2391;DHT22;22957;50.824;4.360;2023-11-21T00:45:25;13.20;99.90
2391;DHT22;22957;50.824;4.360;2023-11-21T00:47:51;13.30;99.90
2391;DHT22;22957;50.824;4.360;2023-11-21T00:50:16;13.10;99.90
2391;DHT22;22957;50.824;4.360;2023-11-21T00:52:42;12.80;99.90
2391;DHT22;22957;50.824;4.360;2023-11-21T00:55:08;12.60;99.90
2391;DHT22;22957;50.824;4.360;2023-11-21T00:57:35;12.80;99.90
2391;DHT22;22957;50.824;4.360;2023-11-21T01:00:00;13.00;99.90
2391;DHT22;22957;50.824;4.360;2023-11-21T01:02:26;12.70;99.90
2391;DHT22;22957;50.824;4.360;2023-11-21T01:04:52;12.50;99.90
2391;DHT22;22957;50.824;4.360;2023-11-21T01:07:17;12.40;99.90
2391;DHT22;22957;50.824;4.360;2023-11-21T01:09:46;12.40;99.90
2391;DHT22;22957;50.824;4.360;2023-11-21T01:12:11;11.70;99.90
2391;DHT22;22957;50.824;4.360;2023-11-21T01:14:37;12.00;99.90
2391;DHT22;22957;50.824;4.360;2023-11-21T01:17:02;11.90;99.90
2391;DHT22;22957;50.824;4.360;2023-11-21T01:19:30;11.90;99.90
2391;DHT22;22957;50.824;4.360;2023-11-21T01:21:55;12.20;99.90
2391;DHT22;22957;50.824;4.360;2023-11-21T01:24:23;12.10;99.90
2391;DHT22;22957;50.824;4.360;2023-11-21T01:26:48;12.50;99.90
2391;DHT22;22957;50.824;4.360;2023-11-21T01:29:14;12.50;99.90
2391;DHT22;22957;50.824;4.360;2023-11-21T01:31:40;12.60;99.90
2391;DHT22;22957;50.824;4.360;2023-11-21T01:34:06;12.40;99.90
2391;DHT22;22957;50.824;4.360;2023-11-21T01:36:32;12.70;99.90
2391;DHT22;22957;50.824;4.360;2023-11-21T01:38:58;12.50;99.90
2391;DHT22;22957;50.824;4.360;2023-11-21T01:41:27;12.50;99.90
2391;DHT22;22957;50.824;4.360;2023-11-21T01:43:54;12.50;99.90
2391;DHT22;22957;50.824;4.360;2023-11-21T01:46:21;12.40;99.90
2391;DHT22;22957;50.824;4.360;2023-11-21T01:48:48;12.60;99.90
2391;DHT22;22957;50.824;4.360;2023-11-21T01:51:14;12.90;99.90
2391;DHT22;22957;50.824;4.360;2023-11-21T01:53:40;12.50;99.90
2391;DHT22;22957;50.824;4.360;2023-11-21T01:56:07;12.70;99.90
2391;DHT22;22957;50.824;4.360;2023-11-21T01:58:33;12.60;99.90
2391;DHT22;22957;50.824;4.360;2023-11-21T02:00:59;12.90;99.90
2391;DHT22;22957;50.824;4.360;2023-11-21T02:03:25;12.10;99.90
2391;DHT22;22957;50.824;4.360;2023-11-21T02:05:53;12.80;99.90
2391;DHT22;22957;50.824;4.360;2023-11-21T02:08:19;12.70;99.90
2391;DHT22;22957;50.824;4.360;2023-11-21T02:10:45;12.80;99.90
2391;DHT22;22957;50.824;4.360;2023-11-21T02:13:11;12.90;99.90
2391;DHT22;22957;50.824;4.360;2023-11-21T02:15:37;13.20;99.90
2391;DHT22;22957;50.824;4.360;2023-11-21T02:18:04;12.80;99.90
2391;DHT22;22957;50.824;4.360;2023-11-21T02:20:31;12.70;99.90
2391;DHT22;22957;50.824;4.360;2023-11-21T02:23:00;12.70;99.90
2391;DHT22;22957;50.824;4.360;2023-11-21T02:25:27;12.70;99.90
2391;DHT22;22957;50.824;4.360;2023-11-21T02:27:57;12.60;99.90
2391;DHT22;22957;50.824;4.360;2023-11-21T02:30:22;12.70;99.90
2391;DHT22;22957;50.824;4.360;2023-11-21T02:32:50;12.70;99.90
2391;DHT22;22957;50.824;4.360;2023-11-21T02:35:18;12.50;99.90
2391;DHT22;22957;50.824;4.360;2023-11-21T02:37:46;13.00;99.90
2391;DHT22;22957;50.824;4.360;2023-11-21T02:40:12;13.00;99.90
2391;DHT22;22957;50.824;4.360;2023-11-21T02:42:39;12.70;99.90
2391;DHT22;22957;50.824;4.360;2023-11-21T02:45:06;12.70;99.90
2391;DHT22;22957;50.824;4.360;2023-11-21T02:47:32;12.50;99.90
2391;DHT22;22957;50.824;4.360;2023-11-21T02:49:57;12.40;99.90
2391;DHT22;22957;50.824;4.360;2023-11-21T02:52:23;12.30;99.90
2391;DHT22;22957;50.824;4.360;2023-11-21T02:54:49;12.50;99.90
2391;DHT22;22957;50.824;4.360;2023-11-21T02:57:15;12.40;99.90
2391;DHT22;22957;50.824;4.360;2023-11-21T02:59:40;12.20;99.90
2391;DHT22;22957;50.824;4.360;2023-11-21T03:02:06;12.60;99.90
2391;DHT22;22957;50.824;4.360;2023-11-21T03:04:34;12.30;99.90
2391;DHT22;22957;50.824;4.360;2023-11-21T03:07:00;12.20;99.90
2391;DHT22;22957;50.824;4.360;2023-11-21T03:09:26;12.10;99.90
2391;DHT22;22957;50.824;4.360;2023-11-21T03:11:53;11.70;99.90
2391;DHT22;22957;50.824;4.360;2023-11-21T03:14:19;12.50;99.90
2391;DHT22;22957;50.824;4.360;2023-11-21T03:16:45;12.10;99.90
2391;DHT22;22957;50.824;4.360;2023-11-21T03:19:12;12.40;99.90
2391;DHT22;22957;50.824;4.360;2023-11-21T03:21:38;12.30;99.90
2391;DHT22;22957;50.824;4.360;2023-11-21T03:24:04;12.40;99.90
2391;DHT22;22957;50.824;4.360;2023-11-21T03:26:29;12.30;99.90
2391;DHT22;22957;50.824;4.360;2023-11-21T03:28:55;12.60;99.90
2391;DHT22;22957;50.824;4.360;2023-11-21T03:31:21;12.70;99.90
2391;DHT22;22957;50.824;4.360;2023-11-21T03:33:46;12.60;99.90
2391;DHT22;22957;50.824;4.360;2023-11-21T03:36:13;12.70;99.90
2391;DHT22;22957;50.824;4.360;2023-11-21T03:38:40;12.80;99.90
2391;DHT22;22957;50.824;4.360;2023-11-21T03:41:07;12.70;99.90
2391;DHT22;22957;50.824;4.360;2023-11-21T03:43:35;12.80;99.90
2391;DHT22;22957;50.824;4.360;2023-11-21T03:46:01;12.70;99.90
2391;DHT22;22957;50.824;4.360;2023-11-21T03:48:27;12.20;99.90
2391;DHT22;22957;50.824;4.360;2023-11-21T03:50:53;13.00;99.90
2391;DHT22;22957;50.824;4.360;2023-11-21T03:53:19;12.70;99.90
2391;DHT22;22957;50.824;4.360;2023-11-21T03:55:44;12.90;99.90
2391;DHT22;22957;50.824;4.360;2023-11-21T03:58:10;12.70;99.90
2391;DHT22;22957;50.824;4.360;2023-11-21T04:00:35;12.60;99.90
2391;DHT22;22957;50.824;4.360;2023-11-21T04:03:01;12.70;99.90
2391;DHT22;22957;50.824;4.360;2023-11-21T04:05:27;12.50;99.90
2391;DHT22;22957;50.824;4.360;2023-11-21T04:07:52;12.60;99.90
2391;DHT22;22957;50.824;4.360;2023-11-21T04:10:18;12.70;99.90
2391;DHT22;22957;50.824;4.360;2023-11-21T04:12:44;12.60;99.90
2391;DHT22;22957;50.824;4.360;2023-11-21T04:15:11;12.60;99.90
2391;DHT22;22957;50.824;4.360;2023-11-21T04:17:38;12.40;99.90
2391;DHT22;22957;50.824;4.360;2023-11-21T04:20:05;12.40;99.90
2391;DHT22;22957;50.824;4.360;2023-11-21T04:22:39;12.50;99.90
2391;DHT22;22957;50.824;4.360;2023-11-21T04:25:14;12.60;99.90
2391;DHT22;22957;50.824;4.360;2023-11-21T04:27:40;13.00;99.90
2391;DHT22;22957;50.824;4.360;2023-11-21T04:30:09;13.00;99.90
2391;DHT22;22957;50.824;4.360;2023-11-21T04:32:35;12.50;99.90
2391;DHT22;22957;50.824;4.360;2023-11-21T04:35:01;12.70;99.90
2391;DHT22;22957;50.824;4.360;2023-11-21T04:37:28;13.00;99.90
2391;DHT22;22957;50.824;4.360;2023-11-21T04:39:53;12.90;99.90
2391;DHT22;22957;50.824;4.360;2023-11-21T04:42:19;12.90;99.90
2391;DHT22;22957;50.824;4.360;2023-11-21T04:44:45;12.60;99.90
2391;DHT22;22957;50.824;4.360;2023-11-21T04:47:10;12.70;99.90
2391;DHT22;22957;50.824;4.360;2023-11-21T04:49:36;12.80;99.90
2391;DHT22;22957;50.824;4.360;2023-11-21T04:52:01;12.50;99.90
2391;DHT22;22957;50.824;4.360;2023-11-21T04:54:30;13.10;99.90
2391;DHT22;22957;50.824;4.360;2023-11-21T04:56:56;12.90;99.90
2391;DHT22;22957;50.824;4.360;2023-11-21T04:59:22;12.90;99.90
2391;DHT22;22957;50.824;4.360;2023-11-21T05:01:50;12.60;99.90
2391;DHT22;22957;50.824;4.360;2023-11-21T05:04:16;12.60;99.90
2391;DHT22;22957;50.824;4.360;2023-11-21T05:06:41;12.70;99.90
2391;DHT22;22957;50.824;4.360;2023-11-21T05:09:07;12.70;99.90
2391;DHT22;22957;50.824;4.360;2023-11-21T05:11:37;12.50;99.90
2391;DHT22;22957;50.824;4.360;2023-11-21T05:14:03;12.20;99.90
2391;DHT22;22957;50.824;4.360;2023-11-21T05:16:30;12.70;99.90
2391;DHT22;22957;50.824;4.360;2023-11-21T05:18:56;12.80;99.90
2391;DHT22;22957;50.824;4.360;2023-11-21T05:21:27;12.90;99.90
2391;DHT22;22957;50.824;4.360;2023-11-21T05:23:52;12.80;99.90
2391;DHT22;22957;50.824;4.360;2023-11-21T05:26:18;12.60;99.90
2391;DHT22;22957;50.824;4.360;2023-11-21T05:28:43;12.90;99.90
2391;DHT22;22957;50.824;4.360;2023-11-21T05:31:09;12.50;99.90
2391;DHT22;22957;50.824;4.360;2023-11-21T05:33:36;12.60;99.90
2391;DHT22;22957;50.824;4.360;2023-11-21T05:36:02;12.50;99.90
2391;DHT22;22957;50.824;4.360;2023-11-21T05:38:27;12.30;99.90
2391;DHT22;22957;50.824;4.360;2023-11-21T05:40:53;12.70;99.90
2391;DHT22;22957;50.824;4.360;2023-11-21T05:43:18;12.50;99.90
2391;DHT22;22957;50.824;4.360;2023-11-21T05:45:44;12.60;99.90
2391;DHT22;22957;50.824;4.360;2023-11-21T05:48:09;12.80;99.90
2391;DHT22;22957;50.824;4.360;2023-11-21T05:50:35;12.80;99.90
2391;DHT22;22957;50.824;4.360;2023-11-21T05:53:03;12.50;99.90
2391;DHT22;22957;50.824;4.360;2023-11-21T05:55:29;12.90;99.90
2391;DHT22;22957;50.824;4.360;2023-11-21T05:57:54;13.00;99.90
2391;DHT22;22957;50.824;4.360;2023-11-21T06:00:20;13.20;99.90
2391;DHT22;22957;50.824;4.360;2023-11-21T06:02:51;13.00;99.90
2391;DHT22;22957;50.824;4.360;2023-11-21T06:05:19;13.10;99.90
2391;DHT22;22957;50.824;4.360;2023-11-21T06:07:45;13.00;99.90
2391;DHT22;22957;50.824;4.360;2023-11-21T06:10:11;13.00;99.90
2391;DHT22;22957;50.824;4.360;2023-11-21T06:12:40;13.10;99.90
2391;DHT22;22957;50.824;4.360;2023-11-21T06:15:08;13.00;99.90
2391;DHT22;22957;50.824;4.360;2023-11-21T06:17:35;13.00;99.90
2391;DHT22;22957;50.824;4.360;2023-11-21T06:20:06;12.70;99.90
2391;DHT22;22957;50.824;4.360;2023-11-21T06:22:38;12.70;99.90
2391;DHT22;22957;50.824;4.360;2023-11-21T06:25:04;12.80;99.90
2391;DHT22;22957;50.824;4.360;2023-11-21T06:27:32;13.10;99.90
2391;DHT22;22957;50.824;4.360;2023-11-21T06:29:58;12.70;99.90
2391;DHT22;22957;50.824;4.360;2023-11-21T06:32:23;13.10;99.90
2391;DHT22;22957;50.824;4.360;2023-11-21T06:34:49;13.10;99.90
2391;DHT22;22957;50.824;4.360;2023-11-21T06:37:15;13.10;99.90
2391;DHT22;22957;50.824;4.360;2023-11-21T06:39:42;13.50;99.90
2391;DHT22;22957;50.824;4.360;2023-11-21T06:42:07;13.10;99.90
2391;DHT22;22957;50.824;4.360;2023-11-21T06:44:33;13.20;99.90
2391;DHT22;22957;50.824;4.360;2023-11-21T06:46:59;13.10;99.90
2391;DHT22;22957;50.824;4.360;2023-11-21T06:49:24;13.00;99.90
2391;DHT22;22957;50.824;4.360;2023-11-21T06:51:51;13.00;99.90
2391;DHT22;22957;50.824;4.360;2023-11-21T06:54:16;12.90;99.90
2391;DHT22;22957;50.824;4.360;2023-11-21T06:56:42;13.10;99.90
2391;DHT22;22957;50.824;4.360;2023-11-21T06:59:07;13.00;99.90
2391;DHT22;22957;50.824;4.360;2023-11-21T07:01:34;13.20;99.90
2391;DHT22;22957;50.824;4.360;2023-11-21T07:04:05;13.30;99.90
2391;DHT22;22957;50.824;4.360;2023-11-21T07:06:31;13.20;99.90
2391;DHT22;22957;50.824;4.360;2023-11-21T07:08:57;13.10;99.90
2391;DHT22;22957;50.824;4.360;2023-11-21T07:11:24;12.90;99.90
2391;DHT22;22957;50.824;4.360;2023-11-21T07:13:50;13.50;99.90
2391;DHT22;22957;50.824;4.360;2023-11-21T07:16:16;13.00;99.90
2391;DHT22;22957;50.824;4.360;2023-11-21T07:18:41;13.00;99.90
2391;DHT22;22957;50.824;4.360;2023-11-21T07:21:07;13.50;99.90
2391;DHT22;22957;50.824;4.360;2023-11-21T07:23:34;13.60;99.90
2391;DHT22;22957;50.824;4.360;2023-11-21T07:25:59;13.90;99.90
2391;DHT22;22957;50.824;4.360;2023-11-21T07:28:25;13.90;99.90
2391;DHT22;22957;50.824;4.360;2023-11-21T07:30:51;14.10;99.90
2391;DHT22;22957;50.824;4.360;2023-11-21T07:33:18;14.60;99.90
2391;DHT22;22957;50.824;4.360;2023-11-21T07:35:43;14.40;99.90
2391;DHT22;22957;50.824;4.360;2023-11-21T07:38:09;14.20;99.90
2391;DHT22;22957;50.824;4.360;2023-11-21T07:40:34;14.30;99.90
2391;DHT22;22957;50.824;4.360;2023-11-21T07:43:00;14.20;99.90
2391;DHT22;22957;50.824;4.360;2023-11-21T07:45:26;14.10;99.90
2391;DHT22;22957;50.824;4.360;2023-11-21T07:47:54;14.10;99.90
2391;DHT22;22957;50.824;4.360;2023-11-21T07:50:21;13.60;99.90
2391;DHT22;22957;50.824;4.360;2023-11-21T07:52:46;13.60;99.90
2391;DHT22;22957;50.824;4.360;2023-11-21T07:55:12;13.70;99.90
2391;DHT22;22957;50.824;4.360;2023-11-21T07:57:39;13.70;99.90
2391;DHT22;22957;50.824;4.360;2023-11-21T08:00:06;14.00;99.90
2391;DHT22;22957;50.824;4.360;2023-11-21T08:02:34;13.50;99.90
2391;DHT22;22957;50.824;4.360;2023-11-21T08:05:00;13.80;99.90
2391;DHT22;22957;50.824;4.360;2023-11-21T08:07:26;13.50;99.90
2391;DHT22;22957;50.824;4.360;2023-11-21T08:09:51;14.00;99.90
2391;DHT22;22957;50.824;4.360;2023-11-21T08:12:18;14.20;99.90
2391;DHT22;22957;50.824;4.360;2023-11-21T08:14:45;14.50;99.90
2391;DHT22;22957;50.824;4.360;2023-11-21T08:17:11;14.20;99.90
2391;DHT22;22957;50.824;4.360;2023-11-21T08:19:36;14.00;99.90
2391;DHT22;22957;50.824;4.360;2023-11-21T08:22:03;14.20;99.90
2391;DHT22;22957;50.824;4.360;2023-11-21T08:24:28;14.30;99.90
2391;DHT22;22957;50.824;4.360;2023-11-21T08:26:54;14.20;99.90
2391;DHT22;22957;50.824;4.360;2023-11-21T08:29:20;14.20;99.90
2391;DHT22;22957;50.824;4.360;2023-11-21T08:31:46;14.10;99.90
2391;DHT22;22957;50.824;4.360;2023-11-21T08:34:14;13.90;99.90
2391;DHT22;22957;50.824;4.360;2023-11-21T08:36:43;14.40;99.90
2391;DHT22;22957;50.824;4.360;2023-11-21T08:39:09;13.80;99.90
2391;DHT22;22957;50.824;4.360;2023-11-21T08:41:35;13.80;99.90
2391;DHT22;22957;50.824;4.360;2023-11-21T08:44:02;14.00;99.90
2391;DHT22;22957;50.824;4.360;2023-11-21T08:46:27;14.10;99.90
2391;DHT22;22957;50.824;4.360;2023-11-21T08:48:53;14.30;99.90
2391;DHT22;22957;50.824;4.360;2023-11-21T08:51:19;14.10;99.90
2391;DHT22;22957;50.824;4.360;2023-11-21T08:53:44;14.10;99.90
2391;DHT22;22957;50.824;4.360;2023-11-21T08:56:13;14.20;99.90
2391;DHT22;22957;50.824;4.360;2023-11-21T08:58:39;14.00;99.90
2391;DHT22;22957;50.824;4.360;2023-11-21T09:01:05;13.80;99.90
2391;DHT22;22957;50.824;4.360;2023-11-21T09:03:32;13.60;99.90
2391;DHT22;22957;50.824;4.360;2023-11-21T09:06:00;13.90;99.90
2391;DHT22;22957;50.824;4.360;2023-11-21T09:08:25;14.10;99.90
2391;DHT22;22957;50.824;4.360;2023-11-21T09:10:53;14.10;99.90
2391;DHT22;22957;50.824;4.360;2023-11-21T09:13:19;14.10;99.90
2391;DHT22;22957;50.824;4.360;2023-11-21T09:15:44;14.10;99.90
2391;DHT22;22957;50.824;4.360;2023-11-21T09:18:13;13.90;99.90
2391;DHT22;22957;50.824;4.360;2023-11-21T09:20:38;14.10;99.90
2391;DHT22;22957;50.824;4.360;2023-11-21T09:23:04;14.30;99.90
2391;DHT22;22957;50.824;4.360;2023-11-21T09:25:30;14.20;99.90
2391;DHT22;22957;50.824;4.360;2023-11-21T09:27:55;14.20;99.90
2391;DHT22;22957;50.824;4.360;2023-11-21T09:30:23;14.30;99.90
2391;DHT22;22957;50.824;4.360;2023-11-21T09:32:50;14.30;99.90
2391;DHT22;22957;50.824;4.360;2023-11-21T09:35:16;14.20;99.90
2391;DHT22;22957;50.824;4.360;2023-11-21T09:37:46;14.50;99.90
2391;DHT22;22957;50.824;4.360;2023-11-21T09:40:12;14.80;99.90
2391;DHT22;22957;50.824;4.360;2023-11-21T09:42:40;14.50;99.90
2391;DHT22;22957;50.824;4.360;2023-11-21T09:45:24;14.40;99.90
2391;DHT22;22957;50.824;4.360;2023-11-21T09:47:52;14.10;99.90
2391;DHT22;22957;50.824;4.360;2023-11-21T09:50:20;14.30;99.90
2391;DHT22;22957;50.824;4.360;2023-11-21T09:53:03;14.80;99.90
2391;DHT22;22957;50.824;4.360;2023-11-21T09:55:34;14.70;99.90
2391;DHT22;22957;50.824;4.360;2023-11-21T09:58:04;15.10;99.90
2391;DHT22;22957;50.824;4.360;2023-11-21T10:00:33;15.30;99.90
2391;DHT22;22957;50.824;4.360;2023-11-21T10:02:59;15.50;99.90
2391;DHT22;22957;50.824;4.360;2023-11-21T10:05:25;15.70;99.90
2391;DHT22;22957;50.824;4.360;2023-11-21T10:07:51;15.40;99.90
2391;DHT22;22957;50.824;4.360;2023-11-21T10:10:19;15.70;99.90
2391;DHT22;22957;50.824;4.360;2023-11-21T10:12:50;15.80;99.90
2391;DHT22;22957;50.824;4.360;2023-11-21T10:15:21;15.90;99.90
2391;DHT22;22957;50.824;4.360;2023-11-21T10:17:51;15.40;99.90
2391;DHT22;22957;50.824;4.360;2023-11-21T10:20:19;15.40;99.90
2391;DHT22;22957;50.824;4.360;2023-11-21T10:22:45;15.60;99.90
2391;DHT22;22957;50.824;4.360;2023-11-21T10:25:11;16.20;99.90
2391;DHT22;22957;50.824;4.360;2023-11-21T10:27:40;16.10;99.90
2391;DHT22;22957;50.824;4.360;2023-11-21T10:30:07;16.50;99.90
2391;DHT22;22957;50.824;4.360;2023-11-21T10:32:40;16.70;99.90
2391;DHT22;22957;50.824;4.360;2023-11-21T10:35:07;15.30;99.90
2391;DHT22;22957;50.824;4.360;2023-11-21T10:37:39;15.20;99.90
2391;DHT22;22957;50.824;4.360;2023-11-21T10:40:11;14.20;99.90
2391;DHT22;22957;50.824;4.360;2023-11-21T10:42:40;13.80;99.90
2391;DHT22;22957;50.824;4.360;2023-11-21T10:45:07;14.80;99.90
2391;DHT22;22957;50.824;4.360;2023-11-21T10:47:39;15.10;99.90
2391;DHT22;22957;50.824;4.360;2023-11-21T10:50:05;15.30;99.90
2391;DHT22;22957;50.824;4.360;2023-11-21T10:52:31;15.20;99.90
2391;DHT22;22957;50.824;4.360;2023-11-21T10:54:56;15.20;99.90
2391;DHT22;22957;50.824;4.360;2023-11-21T10:57:25;15.90;99.90
2391;DHT22;22957;50.824;4.360;2023-11-21T10:59:54;16.20;99.90
2391;DHT22;22957;50.824;4.360;2023-11-21T11:02:24;15.60;99.90
2391;DHT22;22957;50.824;4.360;2023-11-21T11:04:54;15.60;99.90
2391;DHT22;22957;50.824;4.360;2023-11-21T11:07:26;15.90;99.90
2391;DHT22;22957;50.824;4.360;2023-11-21T11:09:54;14.90;99.90
2391;DHT22;22957;50.824;4.360;2023-11-21T11:12:20;15.00;99.90
2391;DHT22;22957;50.824;4.360;2023-11-21T11:14:46;15.40;99.90
2391;DHT22;22957;50.824;4.360;2023-11-21T11:17:13;16.60;99.90
2391;DHT22;22957;50.824;4.360;2023-11-21T11:19:39;16.50;99.90
2391;DHT22;22957;50.824;4.360;2023-11-21T11:22:13;16.50;99.90
2391;DHT22;22957;50.824;4.360;2023-11-21T11:27:23;16.30;99.90
2391;DHT22;22957;50.824;4.360;2023-11-21T11:30:07;16.70;99.90
2391;DHT22;22957;50.824;4.360;2023-11-21T11:32:41;16.70;99.90
2391;DHT22;22957;50.824;4.360;2023-11-21T11:35:15;16.40;99.90
2391;DHT22;22957;50.824;4.360;2023-11-21T11:37:43;16.70;99.90
2391;DHT22;22957;50.824;4.360;2023-11-21T11:40:11;16.80;99.90
2391;DHT22;22957;50.824;4.360;2023-11-21T11:42:37;16.90;99.90
2391;DHT22;22957;50.824;4.360;2023-11-21T11:45:17;16.70;99.90
2391;DHT22;22957;50.824;4.360;2023-11-21T11:47:43;16.70;99.90
2391;DHT22;22957;50.824;4.360;2023-11-21T11:50:11;16.60;99.90
2391;DHT22;22957;50.824;4.360;2023-11-21T11:52:49;16.90;99.90
2391;DHT22;22957;50.824;4.360;2023-11-21T11:55:17;16.50;99.90
2391;DHT22;22957;50.824;4.360;2023-11-21T11:57:48;15.60;99.90
2391;DHT22;22957;50.824;4.360;2023-11-21T12:02:49;15.90;99.90
2391;DHT22;22957;50.824;4.360;2023-11-21T12:05:16;16.20;99.90
2391;DHT22;22957;50.824;4.360;2023-11-21T12:07:48;16.00;99.90
2391;DHT22;22957;50.824;4.360;2023-11-21T12:10:15;16.50;99.90
2391;DHT22;22957;50.824;4.360;2023-11-21T12:12:48;15.90;99.90
2391;DHT22;22957;50.824;4.360;2023-11-21T12:15:14;16.30;99.90
2391;DHT22;22957;50.824;4.360;2023-11-21T12:17:42;16.30;99.90
2391;DHT22;22957;50.824;4.360;2023-11-21T12:20:09;15.90;99.90
2391;DHT22;22957;50.824;4.360;2023-11-21T12:22:59;15.60;99.90
2391;DHT22;22957;50.824;4.360;2023-11-21T12:25:27;15.10;99.90
2391;DHT22;22957;50.824;4.360;2023-11-21T12:28:00;14.90;99.90
2391;DHT22;22957;50.824;4.360;2023-11-21T12:30:28;15.50;99.90
2391;DHT22;22957;50.824;4.360;2023-11-21T12:32:56;14.90;99.90
2391;DHT22;22957;50.824;4.360;2023-11-21T12:35:25;14.50;99.90
2391;DHT22;22957;50.824;4.360;2023-11-21T12:37:52;15.70;99.90
2391;DHT22;22957;50.824;4.360;2023-11-21T12:40:19;15.60;99.90
2391;DHT22;22957;50.824;4.360;2023-11-21T12:42:47;14.80;99.90
2391;DHT22;22957;50.824;4.360;2023-11-21T12:47:58;16.00;99.90
2391;DHT22;22957;50.824;4.360;2023-11-21T12:50:27;16.10;99.90
2391;DHT22;22957;50.824;4.360;2023-11-21T12:53:10;16.00;99.90
2391;DHT22;22957;50.824;4.360;2023-11-21T12:55:38;16.40;99.90
2391;DHT22;22957;50.824;4.360;2023-11-21T12:58:05;16.60;99.90
2391;DHT22;22957;50.824;4.360;2023-11-21T13:00:39;16.40;99.90
2391;DHT22;22957;50.824;4.360;2023-11-21T13:03:08;16.40;99.90
2391;DHT22;22957;50.824;4.360;2023-11-21T13:05:36;16.10;99.90
2391;DHT22;22957;50.824;4.360;2023-11-21T13:08:06;16.00;99.90
2391;DHT22;22957;50.824;4.360;2023-11-21T13:10:35;15.80;99.90
2391;DHT22;22957;50.824;4.360;2023-11-21T13:13:06;16.00;99.90
2391;DHT22;22957;50.824;4.360;2023-11-21T13:15:34;16.00;99.90
2391;DHT22;22957;50.824;4.360;2023-11-21T13:18:03;15.40;99.90
2391;DHT22;22957;50.824;4.360;2023-11-21T13:20:29;15.20;99.90
2391;DHT22;22957;50.824;4.360;2023-11-21T13:22:57;15.40;99.90
2391;DHT22;22957;50.824;4.360;2023-11-21T13:25:24;15.70;99.90
2391;DHT22;22957;50.824;4.360;2023-11-21T13:27:53;15.80;99.90
2391;DHT22;22957;50.824;4.360;2023-11-21T13:30:19;15.00;99.90
2391;DHT22;22957;50.824;4.360;2023-11-21T13:32:52;15.20;99.90
2391;DHT22;22957;50.824;4.360;2023-11-21T13:35:18;15.50;99.90
2391;DHT22;22957;50.824;4.360;2023-11-21T13:37:56;15.30;99.90
2391;DHT22;22957;50.824;4.360;2023-11-21T13:40:25;15.70;99.90
2391;DHT22;22957;50.824;4.360;2023-11-21T13:42:55;15.10;99.90
2391;DHT22;22957;50.824;4.360;2023-11-21T13:45:25;15.00;99.90
2391;DHT22;22957;50.824;4.360;2023-11-21T13:47:52;15.70;99.90
2391;DHT22;22957;50.824;4.360;2023-11-21T13:50:20;15.70;99.90
2391;DHT22;22957;50.824;4.360;2023-11-21T13:52:52;14.80;99.90
2391;DHT22;22957;50.824;4.360;2023-11-21T13:55:19;14.20;99.90
2391;DHT22;22957;50.824;4.360;2023-11-21T13:57:44;15.80;99.90
2391;DHT22;22957;50.824;4.360;2023-11-21T14:00:18;15.50;99.90
2391;DHT22;22957;50.824;4.360;2023-11-21T14:03:02;15.20;99.90
2391;DHT22;22957;50.824;4.360;2023-11-21T14:05:31;15.30;99.90
2391;DHT22;22957;50.824;4.360;2023-11-21T14:07:59;13.30;99.90
2391;DHT22;22957;50.824;4.360;2023-11-21T14:10:30;14.10;99.90
2391;DHT22;22957;50.824;4.360;2023-11-21T14:13:09;14.20;99.90
2391;DHT22;22957;50.824;4.360;2023-11-21T14:15:39;14.20;99.90
2391;DHT22;22957;50.824;4.360;2023-11-21T14:18:07;14.20;99.90
2391;DHT22;22957;50.824;4.360;2023-11-21T14:20:36;14.00;99.90
2391;DHT22;22957;50.824;4.360;2023-11-21T14:23:03;12.90;99.90
2391;DHT22;22957;50.824;4.360;2023-11-21T14:25:31;13.60;99.90
2391;DHT22;22957;50.824;4.360;2023-11-21T14:27:58;12.70;99.90
2391;DHT22;22957;50.824;4.360;2023-11-21T14:30:23;13.40;99.90
2391;DHT22;22957;50.824;4.360;2023-11-21T14:32:50;14.00;99.90
2391;DHT22;22957;50.824;4.360;2023-11-21T14:35:16;13.70;99.90
2391;DHT22;22957;50.824;4.360;2023-11-21T14:37:44;13.80;99.90
2391;DHT22;22957;50.824;4.360;2023-11-21T14:40:12;14.40;99.90
2391;DHT22;22957;50.824;4.360;2023-11-21T14:42:37;14.40;99.90
2391;DHT22;22957;50.824;4.360;2023-11-21T14:45:05;14.20;99.90
2391;DHT22;22957;50.824;4.360;2023-11-21T14:47:33;13.80;99.90
2391;DHT22;22957;50.824;4.360;2023-11-21T14:50:02;13.10;99.90
2391;DHT22;22957;50.824;4.360;2023-11-21T14:52:48;13.90;99.90
2391;DHT22;22957;50.824;4.360;2023-11-21T14:55:24;13.40;99.90
2391;DHT22;22957;50.824;4.360;2023-11-21T14:58:17;13.80;99.90
2391;DHT22;22957;50.824;4.360;2023-11-21T15:00:58;15.00;99.90
2391;DHT22;22957;50.824;4.360;2023-11-21T15:03:28;13.40;99.90
2391;DHT22;22957;50.824;4.360;2023-11-21T15:06:03;13.50;99.90
2391;DHT22;22957;50.824;4.360;2023-11-21T15:08:48;13.90;99.90
2391;DHT22;22957;50.824;4.360;2023-11-21T15:11:18;14.10;99.90
2391;DHT22;22957;50.824;4.360;2023-11-21T15:13:44;13.90;99.90
2391;DHT22;22957;50.824;4.360;2023-11-21T15:16:12;13.60;99.90
2391;DHT22;22957;50.824;4.360;2023-11-21T15:18:37;14.80;99.90
2391;DHT22;22957;50.824;4.360;2023-11-21T15:21:04;13.60;99.90
2391;DHT22;22957;50.824;4.360;2023-11-21T15:23:30;13.90;99.90
2391;DHT22;22957;50.824;4.360;2023-11-21T15:26:00;13.90;99.90
2391;DHT22;22957;50.824;4.360;2023-11-21T15:28:27;14.10;99.90
2391;DHT22;22957;50.824;4.360;2023-11-21T15:30:54;14.60;99.90
2391;DHT22;22957;50.824;4.360;2023-11-21T15:33:19;14.60;99.90
2391;DHT22;22957;50.824;4.360;2023-11-21T15:35:45;13.20;99.90
2391;DHT22;22957;50.824;4.360;2023-11-21T15:38:10;14.20;99.90
2391;DHT22;22957;50.824;4.360;2023-11-21T15:40:37;14.00;99.90
2391;DHT22;22957;50.824;4.360;2023-11-21T15:43:02;14.10;99.90
2391;DHT22;22957;50.824;4.360;2023-11-21T15:45:29;14.60;99.90
2391;DHT22;22957;50.824;4.360;2023-11-21T15:47:54;14.40;99.90
2391;DHT22;22957;50.824;4.360;2023-11-21T15:50:21;14.20;99.90
2391;DHT22;22957;50.824;4.360;2023-11-21T15:52:47;13.80;99.90
2391;DHT22;22957;50.824;4.360;2023-11-21T15:55:13;13.20;99.90